Time;durP1;ratioP1;P1;durP2;ratioP2;P2;SDS_P1;SDS_P2;PMS_P1;PMS_P2;Temp;Humidity;BMP_temperature;BMP_pressure;BME280_temperature;BME280_humidity;BME280_pressure;Samples;Min_cycle;Max_cycle;Signal;HPM_P1;HPM_P2
2022/07/03 00:02:00;;;;;;;4.33;3.93;;;17.90;99.90;;;;;;5037388;28;20463;-61
2022/07/03 00:04:27;;;;;;;5.50;4.30;;;17.80;99.90;;;;;;5037848;28;20570;-61
2022/07/03 00:06:55;;;;;;;4.33;3.73;;;17.80;99.90;;;;;;5037703;28;20479;-61
2022/07/03 00:09:22;;;;;;;5.20;3.97;;;17.70;99.90;;;;;;5037690;28;20589;-61
2022/07/03 00:11:54;;;;;;;4.00;3.30;;;17.60;99.90;;;;;;5037705;28;20495;-61
2022/07/03 00:14:24;;;;;;;3.73;3.40;;;17.50;99.90;;;;;;5037370;28;20458;-61
2022/07/03 00:16:51;;;;;;;4.33;3.93;;;17.50;99.90;;;;;;5037990;28;20566;-60
2022/07/03 00:19:18;;;;;;;5.70;4.37;;;17.40;99.90;;;;;;5037867;28;20570;-60
2022/07/03 00:21:53;;;;;;;4.53;3.87;;;17.50;99.90;;;;;;5037289;28;20455;-61
2022/07/03 00:24:25;;;;;;;4.80;3.80;;;17.40;99.90;;;;;;5037665;28;20553;-61
2022/07/03 00:26:55;;;;;;;5.13;4.67;;;17.30;99.90;;;;;;5037683;28;20455;-61
2022/07/03 00:29:26;;;;;;;4.47;4.07;;;17.20;99.90;;;;;;5037618;28;20470;-61
2022/07/03 00:31:55;;;;;;;4.37;3.97;;;17.10;99.90;;;;;;5037937;28;20495;-61
2022/07/03 00:34:26;;;;;;;4.57;4.17;;;17.10;99.90;;;;;;5037341;28;20463;-61
2022/07/03 00:36:54;;;;;;;4.53;4.10;;;17.20;99.90;;;;;;5036862;28;20884;-61
2022/07/03 00:39:22;;;;;;;5.33;4.33;;;17.10;99.90;;;;;;5037143;28;20461;-61
2022/07/03 00:42:03;;;;;;;5.57;3.40;;;17.10;99.90;;;;;;5036717;28;20434;-61
2022/07/03 00:44:33;;;;;;;4.30;3.90;;;17.00;99.90;;;;;;5037466;28;20915;-61
2022/07/03 00:47:09;;;;;;;4.00;3.60;;;17.00;99.90;;;;;;5036898;28;20459;-61
2022/07/03 00:49:39;;;;;;;3.80;3.50;;;17.00;99.90;;;;;;5037439;28;20459;-61
2022/07/03 00:52:09;;;;;;;3.83;3.40;;;16.90;99.90;;;;;;5037121;28;20495;-61
2022/07/03 00:54:40;;;;;;;3.87;3.57;;;17.00;99.90;;;;;;5036938;28;20537;-61
2022/07/03 00:57:15;;;;;;;3.87;3.47;;;16.90;99.90;;;;;;5037315;28;20876;-61
2022/07/03 00:59:46;;;;;;;3.70;3.30;;;16.80;99.90;;;;;;5036735;28;20556;-61
2022/07/03 01:02:29;;;;;;;4.20;3.80;;;16.80;99.90;;;;;;5036895;28;20465;-61
2022/07/03 01:05:04;;;;;;;5.93;3.40;;;16.80;99.90;;;;;;5037471;28;20467;-61
2022/07/03 01:07:40;;;;;;;7.30;3.67;;;16.80;99.90;;;;;;5036693;28;20835;-61
2022/07/03 01:10:13;;;;;;;4.50;4.10;;;16.80;99.90;;;;;;5037370;28;20494;-61
2022/07/03 01:12:55;;;;;;;4.23;3.23;;;16.80;99.90;;;;;;5037250;28;20505;-61
2022/07/03 01:15:37;;;;;;;6.73;4.23;;;16.80;99.90;;;;;;5037550;28;20467;-61
2022/07/03 01:18:15;;;;;;;5.60;3.60;;;16.80;99.90;;;;;;5037187;28;20752;-61
2022/07/03 01:20:49;;;;;;;4.40;4.00;;;16.70;99.90;;;;;;5037150;28;20473;-61
2022/07/03 01:23:25;;;;;;;6.97;3.33;;;16.70;99.90;;;;;;5037300;28;20467;-61
2022/07/03 01:26:04;;;;;;;4.47;3.50;;;16.60;99.90;;;;;;5037788;28;20963;-61
2022/07/03 01:28:38;;;;;;;3.90;3.50;;;16.50;99.90;;;;;;5040038;28;20829;-61
2022/07/03 01:31:07;;;;;;;5.43;4.10;;;16.40;99.90;;;;;;5040457;28;20494;-61
2022/07/03 01:33:38;;;;;;;4.33;3.67;;;16.30;99.90;;;;;;5040813;28;20462;-61
2022/07/03 01:36:07;;;;;;;3.70;3.40;;;16.30;99.90;;;;;;5039613;28;20467;-61
2022/07/03 01:38:36;;;;;;;4.10;3.10;;;16.20;99.90;;;;;;5039930;28;20730;-61
2022/07/03 01:41:12;;;;;;;4.57;3.50;;;16.20;99.90;;;;;;5040617;28;20473;-61
2022/07/03 01:43:45;;;;;;;7.77;3.60;;;16.20;99.90;;;;;;5040583;28;20462;-61
2022/07/03 01:46:18;;;;;;;3.90;3.10;;;16.10;99.90;;;;;;5040217;28;20558;-61
2022/07/03 01:48:47;;;;;;;3.63;3.30;;;16.10;99.90;;;;;;5040016;28;20470;-61
2022/07/03 01:51:15;;;;;;;4.73;3.70;;;16.00;99.90;;;;;;5040107;28;20494;-61
2022/07/03 01:53:45;;;;;;;4.23;3.40;;;16.00;99.90;;;;;;5040080;28;20466;-61
2022/07/03 01:56:18;;;;;;;4.93;3.50;;;16.00;99.90;;;;;;5039644;28;20463;-61
2022/07/03 01:58:45;;;;;;;4.87;3.60;;;15.90;99.90;;;;;;5039146;28;20527;-61
2022/07/03 02:01:26;;;;;;;6.13;4.33;;;15.70;99.90;;;;;;5039688;28;20481;-61
2022/07/03 02:04:06;;;;;;;3.93;3.53;;;15.70;99.90;;;;;;5039387;28;20902;-61
2022/07/03 02:06:41;;;;;;;7.10;3.67;;;15.80;99.90;;;;;;5039333;28;20463;-61
2022/07/03 02:09:13;;;;;;;4.70;3.93;;;15.70;99.90;;;;;;5039575;28;20462;-60
2022/07/03 02:11:44;;;;;;;4.30;3.47;;;15.70;99.90;;;;;;5039850;28;20470;-61
2022/07/03 02:14:18;;;;;;;5.90;3.57;;;15.70;99.90;;;;;;5038911;28;20557;-61
2022/07/03 02:16:55;;;;;;;5.03;4.53;;;15.60;99.90;;;;;;5039368;28;20895;-61
2022/07/03 02:19:29;;;;;;;6.40;3.13;;;15.50;99.90;;;;;;5039697;28;20470;-61
2022/07/03 02:21:58;;;;;;;6.37;4.00;;;15.40;99.90;;;;;;5038143;28;20465;-61
2022/07/03 02:24:29;;;;;;;4.30;3.90;;;15.40;99.90;;;;;;5039089;28;20918;-61
2022/07/03 02:27:07;;;;;;;5.23;3.90;;;15.40;99.90;;;;;;5039539;28;20562;-61
2022/07/03 02:29:37;;;;;;;4.67;4.23;;;15.40;99.90;;;;;;5039401;28;20485;-61
2022/07/03 02:32:11;;;;;;;4.77;3.70;;;15.40;99.90;;;;;;5038928;28;20501;-61
2022/07/03 02:34:43;;;;;;;4.83;3.73;;;15.30;99.90;;;;;;5039215;28;20477;-61
2022/07/03 02:37:18;;;;;;;3.97;3.67;;;15.20;99.90;;;;;;5039222;28;20466;-61
2022/07/03 02:39:49;;;;;;;4.13;3.50;;;15.30;99.90;;;;;;5039017;28;20461;-61
2022/07/03 02:42:31;;;;;;;4.30;3.90;;;15.20;99.90;;;;;;5039068;28;20462;-61
2022/07/03 02:45:04;;;;;;;4.40;3.40;;;15.20;99.90;;;;;;5039168;28;20438;-61
2022/07/03 02:47:44;;;;;;;6.00;4.10;;;15.10;99.90;;;;;;5039119;28;20467;-60
2022/07/03 02:50:16;;;;;;;6.03;3.50;;;15.10;99.90;;;;;;5038687;28;20448;-61
2022/07/03 02:52:55;;;;;;;4.60;4.20;;;15.10;99.90;;;;;;5038420;28;20585;-61
2022/07/03 02:55:43;;;;;;;4.03;3.63;;;15.10;99.90;;;;;;5039002;28;20463;-61
2022/07/03 02:58:55;;;;;;;4.53;4.13;;;15.10;99.90;;;;;;5038303;28;20491;-61
2022/07/03 03:01:31;;;;;;;5.57;4.30;;;15.10;99.90;;;;;;5000850;28;20463;-61
2022/07/03 03:04:08;;;;;;;4.40;4.00;;;15.00;99.90;;;;;;5037639;28;20440;-61
2022/07/03 03:06:37;;;;;;;5.43;4.47;;;15.00;99.90;;;;;;5038314;28;20466;-61
2022/07/03 03:09:08;;;;;;;3.87;3.37;;;14.90;99.90;;;;;;5038423;28;20462;-61
2022/07/03 03:11:43;;;;;;;4.23;3.83;;;14.90;99.90;;;;;;5038117;28;20491;-61
2022/07/03 03:14:13;;;;;;;5.00;4.60;;;14.90;99.90;;;;;;5038366;28;20462;-61
2022/07/03 03:16:48;;;;;;;4.37;3.90;;;14.80;99.90;;;;;;5038309;28;20521;-61
2022/07/03 03:19:15;;;;;;;4.23;3.83;;;14.70;99.90;;;;;;5038563;28;20463;-61
2022/07/03 03:21:54;;;;;;;3.93;3.63;;;14.80;99.90;;;;;;5038172;28;20719;-61
2022/07/03 03:24:23;;;;;;;5.50;4.10;;;14.70;99.90;;;;;;5038230;28;20762;-61
2022/07/03 03:26:50;;;;;;;7.37;3.53;;;14.70;99.90;;;;;;5037827;28;20566;-61
2022/07/03 03:29:22;;;;;;;4.57;3.57;;;14.70;99.90;;;;;;5038015;28;20459;-62
2022/07/03 03:31:52;;;;;;;5.00;3.70;;;14.60;99.90;;;;;;5037263;28;20565;-61
2022/07/03 03:34:21;;;;;;;3.97;3.60;;;14.50;99.90;;;;;;5037558;28;20463;-61
2022/07/03 03:36:48;;;;;;;7.03;3.83;;;14.50;99.90;;;;;;5036890;28;20467;-61
2022/07/03 03:39:16;;;;;;;4.63;4.23;;;14.50;99.90;;;;;;5037672;28;20761;-61
2022/07/03 03:41:46;;;;;;;4.50;4.07;;;14.50;1.00;;;;;;5037814;28;20459;-61
2022/07/03 03:44:13;;;;;;;5.03;4.47;;;14.60;1.00;;;;;;5037488;28;20438;-61
2022/07/03 03:46:42;;;;;;;6.03;4.27;;;14.60;99.90;;;;;;5037521;28;20474;-61
2022/07/03 03:49:12;;;;;;;6.30;4.80;;;14.60;99.90;;;;;;5037250;28;20467;-61
2022/07/03 03:51:40;;;;;;;4.00;3.57;;;14.60;99.90;;;;;;5037647;28;20466;-61
2022/07/03 03:54:13;;;;;;;4.40;4.00;;;14.60;99.90;;;;;;5037248;28;20463;-61
2022/07/03 03:56:40;;;;;;;4.33;3.93;;;14.70;99.90;;;;;;5037162;28;20777;-61
2022/07/03 03:59:07;;;;;;;4.70;4.27;;;14.80;99.90;;;;;;5036953;28;20918;-61
2022/07/03 04:01:34;;;;;;;9.03;4.03;;;14.80;99.90;;;;;;5036263;28;20475;-61
2022/07/03 04:04:03;;;;;;;4.67;3.60;;;14.90;99.90;;;;;;5037172;28;20750;-61
2022/07/03 04:06:35;;;;;;;4.50;4.10;;;14.90;99.90;;;;;;5035906;28;20450;-61
2022/07/03 04:09:02;;;;;;;4.37;4.07;;;15.00;99.90;;;;;;5037282;28;20445;-61
2022/07/03 04:11:31;;;;;;;3.63;3.33;;;15.10;99.90;;;;;;5037586;28;20473;-61
2022/07/03 04:13:59;;;;;;;4.30;3.60;;;15.10;99.90;;;;;;5036964;28;20646;-61
2022/07/03 04:16:26;;;;;;;6.27;4.33;;;15.20;99.90;;;;;;5037174;28;20467;-61
2022/07/03 04:18:54;;;;;;;5.20;3.70;;;15.20;99.90;;;;;;5037139;28;20462;-61
2022/07/03 04:21:26;;;;;;;4.60;3.77;;;15.30;99.90;;;;;;5037200;28;20921;-61
2022/07/03 04:23:55;;;;;;;4.50;4.00;;;15.30;99.90;;;;;;5036708;28;20463;-61
2022/07/03 04:26:22;;;;;;;4.70;3.73;;;15.40;99.90;;;;;;5037163;28;20469;-61
2022/07/03 04:28:49;;;;;;;3.50;3.17;;;15.50;99.90;;;;;;5037281;28;20461;-61
2022/07/03 04:31:16;;;;;;;3.87;3.50;;;15.50;99.90;;;;;;5032767;28;20478;-61
2022/07/03 04:33:44;;;;;;;5.57;3.90;;;15.60;99.90;;;;;;5056690;28;20494;-62
2022/07/03 04:36:11;;;;;;;4.00;3.40;;;15.70;99.90;;;;;;5044111;28;20475;-62
2022/07/03 04:38:44;;;;;;;4.53;3.47;;;15.80;99.90;;;;;;5036778;28;20506;-61
2022/07/03 04:41:12;;;;;;;4.43;4.00;;;15.90;99.90;;;;;;5035496;28;20475;-61
2022/07/03 04:43:39;;;;;;;4.30;3.90;;;16.00;99.90;;;;;;5036555;28;20458;-61
2022/07/03 04:46:06;;;;;;;5.47;4.70;;;16.10;99.90;;;;;;5033172;28;20492;-61
2022/07/03 04:48:33;;;;;;;4.27;3.87;;;16.20;99.90;;;;;;5036961;28;20459;-61
2022/07/03 04:51:02;;;;;;;4.20;3.80;;;16.20;99.90;;;;;;5026000;28;20487;-61
2022/07/03 04:53:31;;;;;;;4.00;3.60;;;16.20;99.90;;;;;;5017190;28;20496;-61
2022/07/03 04:56:00;;;;;;;4.97;4.00;;;16.30;99.90;;;;;;5036319;28;20763;-61
2022/07/03 04:58:27;;;;;;;4.70;3.73;;;16.40;99.90;;;;;;5034410;28;20895;-61
2022/07/03 05:00:57;;;;;;;5.77;4.10;;;16.50;99.90;;;;;;5047155;28;20475;-62
2022/07/03 05:03:27;;;;;;;4.00;3.70;;;16.60;99.90;;;;;;5058058;28;20465;-62
2022/07/03 05:05:55;;;;;;;6.60;4.43;;;16.80;99.90;;;;;;5050007;28;20539;-62
2022/07/03 05:08:23;;;;;;;4.13;3.43;;;17.00;99.90;;;;;;5040479;28;20798;-62
2022/07/03 05:10:50;;;;;;;5.17;3.60;;;17.00;99.90;;;;;;5033704;28;20849;-61
2022/07/03 05:13:19;;;;;;;5.80;3.97;;;17.00;99.90;;;;;;5020795;28;20583;-62
2022/07/03 05:15:46;;;;;;;3.90;3.50;;;16.90;99.90;;;;;;5028910;28;20582;-61
2022/07/03 05:18:16;;;;;;;4.93;4.27;;;16.80;99.90;;;;;;5040064;28;20465;-61
2022/07/03 05:20:44;;;;;;;5.70;4.03;;;16.50;99.90;;;;;;5040335;28;20565;-61
2022/07/03 05:23:11;;;;;;;4.87;3.73;;;16.50;99.90;;;;;;5040391;28;20524;-62
2022/07/03 05:25:38;;;;;;;4.40;4.03;;;16.60;99.90;;;;;;5040278;28;20756;-61
2022/07/03 05:28:08;;;;;;;4.43;3.97;;;16.60;99.90;;;;;;5039867;28;20899;-61
2022/07/03 05:30:39;;;;;;;4.63;4.00;;;16.70;99.90;;;;;;5039907;28;20462;-61
2022/07/03 05:33:07;;;;;;;6.30;4.90;;;16.80;99.90;;;;;;5040506;28;20487;-61
2022/07/03 05:35:37;;;;;;;4.10;3.70;;;16.90;99.90;;;;;;5040406;28;20459;-61
2022/07/03 05:38:05;;;;;;;5.73;3.80;;;17.00;99.90;;;;;;5040014;28;20485;-61
2022/07/03 05:40:32;;;;;;;4.43;3.77;;;17.20;99.90;;;;;;5039154;28;20498;-62
2022/07/03 05:42:59;;;;;;;5.27;3.70;;;17.40;99.90;;;;;;5040000;28;20995;-61
2022/07/03 05:45:27;;;;;;;4.20;3.80;;;17.60;99.90;;;;;;5040220;28;20561;-62
2022/07/03 05:47:55;;;;;;;4.37;3.90;;;17.80;99.90;;;;;;5039773;28;20768;-61
2022/07/03 05:50:23;;;;;;;5.60;4.80;;;18.00;99.90;;;;;;5040020;28;20510;-62
2022/07/03 05:52:50;;;;;;;5.50;4.40;;;18.30;99.90;;;;;;5039883;28;20981;-62
2022/07/03 05:55:17;;;;;;;3.80;3.50;;;18.40;99.90;;;;;;5039805;28;20463;-62
2022/07/03 05:57:45;;;;;;;6.23;4.07;;;18.40;99.90;;;;;;5040120;28;20875;-62
2022/07/03 06:00:15;;;;;;;5.03;4.53;;;18.30;99.90;;;;;;5039632;28;20470;-61
2022/07/03 06:02:43;;;;;;;3.90;3.60;;;18.50;99.90;;;;;;5039829;28;20459;-62
2022/07/03 06:05:11;;;;;;;4.90;4.10;;;18.80;99.90;;;;;;5039718;28;20845;-62
2022/07/03 06:07:39;;;;;;;4.27;3.80;;;19.30;99.90;;;;;;5039782;28;20862;-62
2022/07/03 06:10:09;;;;;;;4.70;4.30;;;19.60;99.90;;;;;;5039572;28;21021;-62
2022/07/03 06:12:38;;;;;;;5.20;3.70;;;20.10;99.90;;;;;;5039037;28;20491;-62
2022/07/03 06:15:07;;;;;;;4.23;3.80;;;20.40;99.90;;;;;;5039156;28;20824;-62
2022/07/03 06:17:39;;;;;;;5.47;4.00;;;20.70;99.90;;;;;;5039333;28;20959;-63
2022/07/03 06:20:07;;;;;;;4.37;3.97;;;21.00;99.90;;;;;;5038883;28;20561;-63
2022/07/03 06:22:38;;;;;;;5.60;4.07;;;21.50;99.90;;;;;;5038941;28;20524;-62
2022/07/03 06:25:06;;;;;;;6.30;4.13;;;21.90;99.90;;;;;;5039047;28;20467;-62
2022/07/03 06:27:34;;;;;;;8.47;3.90;;;22.10;99.90;;;;;;5039417;28;20566;-62
2022/07/03 06:30:01;;;;;;;5.80;4.03;;;22.20;99.90;;;;;;5038559;28;20467;-62
2022/07/03 06:32:29;;;;;;;7.27;3.90;;;22.20;99.90;;;;;;5038823;28;20499;-62
2022/07/03 06:34:58;;;;;;;4.33;3.93;;;22.30;99.90;;;;;;5039272;28;20471;-62
2022/07/03 06:37:25;;;;;;;5.07;4.60;;;22.60;99.90;;;;;;5038526;28;20469;-62
2022/07/03 06:39:54;;;;;;;5.93;4.37;;;22.80;99.90;;;;;;5038377;28;20486;-62
2022/07/03 06:42:21;;;;;;;5.57;4.13;;;23.00;99.90;;;;;;5038558;28;20470;-62
2022/07/03 06:44:48;;;;;;;5.80;4.00;;;23.30;99.90;;;;;;5038686;28;20463;-62
2022/07/03 06:47:15;;;;;;;9.00;5.37;;;23.50;99.90;;;;;;5039153;28;20467;-62
2022/07/03 06:49:43;;;;;;;5.83;4.40;;;23.50;99.90;;;;;;5039135;28;20460;-62
2022/07/03 06:52:11;;;;;;;5.50;3.60;;;23.60;99.90;;;;;;5038426;28;20478;-62
2022/07/03 06:54:44;;;;;;;6.00;3.60;;;23.60;99.90;;;;;;5038698;28;20606;-61
2022/07/03 06:57:13;;;;;;;5.97;4.30;;;23.80;99.90;;;;;;5038625;28;20465;-62
2022/07/03 06:59:41;;;;;;;4.93;4.03;;;23.80;99.90;;;;;;5038443;28;20510;-62
2022/07/03 07:02:08;;;;;;;5.53;4.17;;;23.80;99.90;;;;;;5038557;28;20509;-62
2022/07/03 07:04:35;;;;;;;6.47;4.33;;;24.20;99.90;;;;;;5038655;28;20465;-62
2022/07/03 07:07:06;;;;;;;6.90;4.03;;;24.30;99.90;;;;;;5038338;28;20494;-62
2022/07/03 07:09:33;;;;;;;6.80;3.90;;;24.60;99.90;;;;;;5039361;28;20549;-62
2022/07/03 07:12:02;;;;;;;5.27;3.50;;;24.40;99.90;;;;;;5038425;28;20498;-62
2022/07/03 07:14:31;;;;;;;7.87;4.27;;;24.60;99.90;;;;;;5038664;28;20521;-62
2022/07/03 07:16:58;;;;;;;8.00;4.63;;;25.00;99.90;;;;;;5038880;28;20914;-62
2022/07/03 07:19:25;;;;;;;5.00;3.77;;;25.10;99.90;;;;;;5038661;28;20558;-62
2022/07/03 07:21:53;;;;;;;4.03;3.40;;;25.20;99.90;;;;;;5038379;28;20911;-62
2022/07/03 07:24:20;;;;;;;7.40;3.87;;;25.30;99.90;;;;;;5036682;28;20459;-62
2022/07/03 07:26:52;;;;;;;4.60;3.90;;;25.40;99.90;;;;;;5038697;28;20489;-62
2022/07/03 07:29:20;;;;;;;4.40;3.93;;;25.60;99.90;;;;;;5038064;28;20477;-61
2022/07/03 07:31:53;;;;;;;7.17;4.50;;;25.90;99.90;;;;;;5038022;28;20538;-62
2022/07/03 07:34:20;;;;;;;4.53;4.13;;;25.60;99.90;;;;;;5036688;28;20495;-62
2022/07/03 07:36:48;;;;;;;5.53;3.70;;;25.10;99.90;;;;;;5038322;28;20463;-63
2022/07/03 07:39:15;;;;;;;4.83;4.00;;;25.20;99.90;;;;;;5037619;28;20486;-62
2022/07/03 07:41:51;;;;;;;3.67;3.37;;;25.80;99.90;;;;;;5038597;28;20455;-62
2022/07/03 07:44:18;;;;;;;4.53;3.40;;;26.20;99.90;;;;;;5038751;28;20565;-62
2022/07/03 07:46:46;;;;;;;4.90;3.77;;;26.60;99.90;;;;;;5038426;28;20471;-62
2022/07/03 07:49:17;;;;;;;4.80;4.30;;;26.40;99.90;;;;;;5038648;28;20482;-62
2022/07/03 07:51:47;;;;;;;6.80;4.43;;;26.30;99.90;;;;;;5038926;28;20463;-62
2022/07/03 07:54:15;;;;;;;3.50;3.20;;;26.40;99.90;;;;;;5038514;28;20541;-62
2022/07/03 07:56:43;;;;;;;4.70;3.50;;;26.50;99.90;;;;;;5037954;28;20467;-62
2022/07/03 07:59:13;;;;;;;4.33;3.07;;;27.20;99.90;;;;;;5038386;28;20517;-62
2022/07/03 08:07:11;;;;;;;4.67;4.20;;;27.70;99.90;;;;;;5037868;28;20446;-62
2022/07/03 08:09:38;;;;;;;3.90;3.60;;;27.90;99.90;;;;;;5037727;28;20516;-62
2022/07/03 08:12:06;;;;;;;4.67;3.63;;;28.00;99.90;;;;;;5037306;28;20915;-63
2022/07/03 08:14:33;;;;;;;3.10;2.90;;;28.20;99.90;;;;;;5034725;28;20499;-62
2022/07/03 08:17:03;;;;;;;5.10;3.33;;;27.10;99.90;;;;;;5038276;28;20479;-62
2022/07/03 08:19:33;;;;;;;4.23;3.83;;;27.90;99.90;;;;;;5017906;28;20459;-62
2022/07/03 08:22:01;;;;;;;3.80;3.23;;;28.50;99.90;;;;;;5035059;28;20477;-63
2022/07/03 08:24:28;;;;;;;5.10;4.00;;;28.80;99.90;;;;;;5037399;28;20463;-62
2022/07/03 08:26:58;;;;;;;4.40;3.60;;;28.90;99.90;;;;;;5018905;28;20478;-62
2022/07/03 08:29:28;;;;;;;4.63;2.90;;;28.60;99.90;;;;;;5016830;28;20460;-62
2022/07/03 08:31:56;;;;;;;3.83;3.30;;;28.90;99.90;;;;;;5017470;28;20464;-62
2022/07/03 08:34:28;;;;;;;6.03;3.13;;;29.20;99.90;;;;;;5017544;28;20474;-61
2022/07/03 08:37:04;;;;;;;4.70;4.17;;;29.20;99.90;;;;;;5020873;28;20468;-62
2022/07/03 08:39:31;;;;;;;4.03;3.23;;;28.80;99.90;;;;;;5021800;28;20467;-62
2022/07/03 08:42:01;;;;;;;3.73;3.43;;;28.70;99.90;;;;;;5028836;28;20469;-62
2022/07/03 08:44:30;;;;;;;6.77;3.43;;;29.00;99.90;;;;;;5041000;28;20494;-62
2022/07/03 08:47:03;;;;;;;4.40;3.60;;;28.80;99.90;;;;;;5041790;28;20463;-62
2022/07/03 08:49:31;;;;;;;3.80;3.50;;;29.20;99.90;;;;;;5041175;28;20469;-62
2022/07/03 08:52:07;;;;;;;4.43;3.57;;;29.40;99.90;;;;;;5041400;28;20542;-62
2022/07/03 08:54:35;;;;;;;3.93;3.60;;;29.30;99.90;;;;;;5041292;28;20495;-62
2022/07/03 08:57:07;;;;;;;4.20;3.80;;;29.30;99.90;;;;;;5041195;28;20463;-62
2022/07/03 08:59:39;;;;;;;5.30;3.60;;;29.00;99.90;;;;;;5040807;28;20935;-62
2022/07/03 09:02:10;;;;;;;5.97;4.00;;;29.20;99.90;;;;;;5040957;28;20463;-62
2022/07/03 09:04:39;;;;;;;6.53;3.93;;;29.60;99.90;;;;;;5040967;28;20462;-62
2022/07/03 09:07:08;;;;;;;4.67;3.50;;;28.60;99.90;;;;;;5041588;28;20888;-63
2022/07/03 09:09:39;;;;;;;4.93;4.53;;;28.90;99.90;;;;;;5040572;28;20494;-62
2022/07/03 09:12:07;;;;;;;5.83;3.93;;;28.90;99.90;;;;;;5040961;28;20466;-63
2022/07/03 09:14:37;;;;;;;6.60;4.33;;;29.30;99.90;;;;;;5040684;28;20590;-62
2022/07/03 09:17:10;;;;;;;5.33;4.80;;;29.10;99.90;;;;;;5041218;28;20467;-63
2022/07/03 09:19:42;;;;;;;6.97;4.50;;;28.80;99.90;;;;;;5040742;28;20523;-62
2022/07/03 09:22:26;;;;;;;4.80;4.30;;;29.20;99.90;;;;;;5040638;28;20466;-62
2022/07/03 09:24:57;;;;;;;4.77;4.37;;;29.20;99.90;;;;;;5039139;28;20566;-63
2022/07/03 09:27:25;;;;;;;5.57;3.87;;;28.70;99.90;;;;;;5040424;28;20509;-63
2022/07/03 09:30:05;;;;;;;5.80;4.63;;;28.70;99.90;;;;;;5040119;28;20459;-63
2022/07/03 09:32:36;;;;;;;4.77;4.00;;;29.40;99.90;;;;;;5040060;28;20433;-63
2022/07/03 09:35:20;;;;;;;4.80;4.17;;;29.50;99.90;;;;;;5039762;28;20503;-62
2022/07/03 09:37:56;;;;;;;4.07;3.50;;;29.80;99.90;;;;;;5039553;28;20441;-63
2022/07/03 09:40:27;;;;;;;5.77;3.77;;;29.90;99.90;;;;;;5040191;28;20459;-62
2022/07/03 09:43:09;;;;;;;4.20;3.80;;;30.40;99.90;;;;;;5040392;28;20463;-63
2022/07/03 09:45:57;;;;;;;4.57;4.20;;;30.00;99.90;;;;;;5039354;28;20463;-64
2022/07/03 09:48:27;;;;;;;5.50;4.17;;;29.90;99.90;;;;;;5039128;28;20554;-63
2022/07/03 09:51:15;;;;;;;4.57;4.17;;;29.40;99.90;;;;;;5039955;28;20467;-62
2022/07/03 09:53:50;;;;;;;5.10;4.60;;;29.60;99.90;;;;;;5039914;28;20853;-61
2022/07/03 09:56:18;;;;;;;5.73;4.47;;;29.60;99.90;;;;;;5039763;28;20541;-63
2022/07/03 09:59:09;;;;;;;5.70;4.37;;;28.90;99.90;;;;;;5039199;28;20491;-62
2022/07/03 10:01:40;;;;;;;5.37;4.80;;;28.70;99.90;;;;;;5039771;28;20532;-62
2022/07/03 10:04:17;;;;;;;5.17;4.10;;;29.00;99.90;;;;;;5039448;28;20971;-62
2022/07/03 10:06:48;;;;;;;4.77;4.10;;;29.60;99.90;;;;;;5039434;28;20939;-63
2022/07/03 10:09:22;;;;;;;4.30;3.70;;;29.80;99.90;;;;;;5039745;28;20561;-62
2022/07/03 10:11:50;;;;;;;5.93;4.17;;;30.30;99.90;;;;;;5039272;28;20811;-63
2022/07/03 10:14:21;;;;;;;4.73;4.33;;;30.20;99.90;;;;;;5037981;28;20494;-62
2022/07/03 10:16:49;;;;;;;5.83;4.03;;;30.20;99.90;;;;;;5038908;28;20463;-63
2022/07/03 10:19:20;;;;;;;3.50;3.20;;;30.20;99.90;;;;;;5039635;28;20460;-62
2022/07/03 10:21:55;;;;;;;6.20;4.80;;;30.40;99.90;;;;;;5039094;28;20463;-63
2022/07/03 10:24:28;;;;;;;4.03;3.60;;;30.20;99.90;;;;;;5039025;28;20553;-63
2022/07/03 10:27:03;;;;;;;4.00;3.60;;;30.10;99.90;;;;;;5039409;28;20902;-63
2022/07/03 10:29:32;;;;;;;4.07;3.67;;;30.40;99.90;;;;;;5039384;28;20467;-63
2022/07/03 10:31:59;;;;;;;4.67;4.23;;;30.30;99.90;;;;;;5039100;28;20545;-63
2022/07/03 10:34:28;;;;;;;4.10;3.70;;;30.10;99.90;;;;;;5038795;28;20486;-63
2022/07/03 10:37:00;;;;;;;4.00;3.33;;;30.90;99.90;;;;;;5037552;28;20491;-63
2022/07/03 10:39:39;;;;;;;5.27;4.77;;;30.60;99.90;;;;;;5039141;28;20495;-63
2022/07/03 10:45:04;;;;;;;4.47;4.07;;;31.40;99.90;;;;;;5038474;28;20434;-63
2022/07/03 10:47:42;;;;;;;4.70;3.80;;;31.50;99.90;;;;;;5020496;28;20536;-63
2022/07/03 10:50:12;;;;;;;3.20;2.90;;;31.40;99.90;;;;;;5038385;28;20914;-63
2022/07/03 10:52:40;;;;;;;4.37;4.07;;;31.50;99.90;;;;;;5038415;28;20467;-63
2022/07/03 10:55:10;;;;;;;3.70;3.20;;;31.60;99.90;;;;;;5038439;28;20483;-62
2022/07/03 10:57:41;;;;;;;3.40;3.10;;;31.40;99.90;;;;;;5038322;28;20937;-63
2022/07/03 11:00:19;;;;;;;4.30;3.33;;;31.40;99.90;;;;;;5036107;28;20495;-64
2022/07/03 11:02:48;;;;;;;4.83;3.63;;;31.00;99.90;;;;;;5036461;28;20469;-62
2022/07/03 11:05:36;;;;;;;3.57;3.30;;;29.90;99.90;;;;;;5036605;28;20774;-63
2022/07/03 11:08:14;;;;;;;3.73;3.43;;;29.60;99.90;;;;;;5017270;28;20562;-63
2022/07/03 11:11:54;;;;;;;4.10;3.00;;;28.30;99.90;;;;;;5018047;28;20842;-63
2022/07/03 11:13:32;;;;;;;3.87;2.80;;;28.20;99.90;;;;;;5016739;28;20460;-63
2022/07/03 11:16:02;;;;;;;5.37;2.97;;;29.30;99.90;;;;;;5017800;28;20746;-62
2022/07/03 11:18:39;;;;;;;3.10;2.80;;;29.80;99.90;;;;;;5018162;28;20810;-62
2022/07/03 11:21:31;;;;;;;3.80;3.40;;;29.90;99.90;;;;;;5017875;28;20486;-62
2022/07/03 11:24:46;;;;;;;3.53;2.43;;;30.30;99.90;;;;;;5017913;28;20460;-62
2022/07/03 11:27:34;;;;;;;4.00;2.60;;;30.90;99.90;;;;;;4938482;29;20534;-62
2022/07/03 11:30:03;;;;;;;2.53;2.33;;;31.20;99.90;;;;;;4998783;28;20980;-62
2022/07/03 11:33:02;;;;;;;3.13;2.53;;;31.20;99.90;;;;;;5017537;28;20471;-62
2022/07/03 11:35:55;;;;;;;3.50;3.20;;;31.20;99.90;;;;;;5004166;28;20496;-62
2022/07/03 11:38:25;;;;;;;3.03;2.83;;;31.60;99.90;;;;;;5034921;28;20807;-63
2022/07/03 11:40:53;;;;;;;3.40;3.20;;;31.70;99.90;;;;;;5037457;28;20463;-62
2022/07/03 11:43:22;;;;;;;2.80;2.60;;;31.90;99.90;;;;;;5035329;28;20573;-62
2022/07/03 11:45:52;;;;;;;3.63;2.87;;;31.20;99.90;;;;;;5041513;28;20504;-63
2022/07/03 11:48:20;;;;;;;2.50;2.33;;;31.20;99.90;;;;;;5039426;28;20475;-62
2022/07/03 11:50:49;;;;;;;4.70;2.93;;;31.10;99.90;;;;;;5037437;28;20549;-62
2022/07/03 11:53:21;;;;;;;3.30;2.87;;;31.70;99.90;;;;;;5048770;28;20541;-62
2022/07/03 11:55:50;;;;;;;4.90;2.80;;;32.10;99.90;;;;;;5052535;28;20520;-63
2022/07/03 11:58:17;;;;;;;4.13;3.20;;;32.30;99.90;;;;;;5037248;28;20527;-62
2022/07/03 12:00:50;;;;;;;3.00;2.80;;;32.10;99.90;;;;;;5036067;28;21219;-63
2022/07/03 12:03:25;;;;;;;4.00;2.53;;;32.10;99.90;;;;;;5037296;28;20892;-63
2022/07/03 12:05:57;;;;;;;3.10;2.90;;;31.60;99.90;;;;;;5037446;28;20458;-63
2022/07/03 12:08:28;;;;;;;3.33;2.60;;;30.40;99.90;;;;;;5037119;28;20570;-62
2022/07/03 12:11:01;;;;;;;2.87;2.57;;;30.30;99.90;;;;;;5036686;28;20471;-63
2022/07/03 12:13:30;;;;;;;2.80;2.60;;;31.00;99.90;;;;;;5036255;28;20498;-63
2022/07/03 12:16:05;;;;;;;4.10;2.30;;;31.30;99.90;;;;;;5036188;28;20938;-63
2022/07/03 12:18:51;;;;;;;3.77;3.13;;;31.20;99.90;;;;;;5036444;28;20469;-63
2022/07/03 12:21:19;;;;;;;2.50;2.30;;;31.40;99.90;;;;;;5035890;28;20463;-63
2022/07/03 12:23:50;;;;;;;3.20;2.57;;;31.30;99.90;;;;;;5036293;28;20914;-62
2022/07/03 12:26:34;;;;;;;4.20;2.83;;;31.80;99.90;;;;;;5035695;28;20887;-62
2022/07/03 12:29:04;;;;;;;2.50;2.30;;;32.80;99.90;;;;;;5036452;28;20524;-63
2022/07/03 12:31:35;;;;;;;2.60;2.40;;;32.80;99.90;;;;;;5035435;28;20475;-62
2022/07/03 12:34:03;;;;;;;3.00;2.80;;;32.10;99.90;;;;;;5036157;28;20467;-62
2022/07/03 12:36:33;;;;;;;3.40;2.77;;;31.60;99.90;;;;;;5037629;28;20915;-63
2022/07/03 12:39:01;;;;;;;2.70;2.50;;;31.10;99.90;;;;;;5041335;28;20481;-63
2022/07/03 12:41:34;;;;;;;3.10;2.40;;;31.20;99.90;;;;;;5033916;28;20506;-63
2022/07/03 12:44:05;;;;;;;4.70;3.10;;;31.30;99.90;;;;;;5035768;28;20904;-63
2022/07/03 12:46:36;;;;;;;3.03;2.77;;;30.70;99.90;;;;;;5046539;28;20921;-63
2022/07/03 12:49:10;;;;;;;3.53;2.97;;;30.60;99.90;;;;;;5056604;28;20473;-63
2022/07/03 12:51:39;;;;;;;3.67;3.37;;;31.50;99.90;;;;;;5052391;28;20943;-63
2022/07/03 12:54:07;;;;;;;5.17;3.70;;;31.40;99.90;;;;;;5053198;28;21005;-63
2022/07/03 12:56:35;;;;;;;5.30;2.90;;;31.30;99.90;;;;;;5038854;28;20509;-62
2022/07/03 12:59:19;;;;;;;4.07;3.20;;;30.10;99.90;;;;;;5056237;28;20949;-61
2022/07/03 13:02:04;;;;;;;3.00;2.80;;;28.50;99.90;;;;;;5053730;28;20465;-62
2022/07/03 13:04:39;;;;;;;4.70;3.30;;;28.40;99.90;;;;;;5054514;28;20555;-63
2022/07/03 13:07:08;;;;;;;6.67;3.60;;;28.30;99.90;;;;;;5032185;28;20478;-63
2022/07/03 13:09:36;;;;;;;2.50;2.30;;;29.40;99.90;;;;;;5035209;28;20463;-63
2022/07/03 13:12:05;;;;;;;4.90;3.10;;;30.00;99.90;;;;;;5036366;28;20459;-63
2022/07/03 13:14:33;;;;;;;7.20;2.70;;;30.40;99.90;;;;;;5034314;28;20473;-63
2022/07/03 13:17:03;;;;;;;8.07;3.13;;;29.90;99.90;;;;;;5033287;28;20911;-62
2022/07/03 13:19:33;;;;;;;4.00;3.33;;;29.90;99.90;;;;;;5036187;28;20524;-63